createdAt,value
2022-12-03T00:07:18.851Z,92.2
2022-12-03T00:21:56.173Z,93
2022-12-03T00:36:29.458Z,93.5
2022-12-03T00:50:56.541Z,92.4
2022-12-03T01:05:35.768Z,92.9
2022-12-03T01:20:16.600Z,93.7
2022-12-03T01:34:53.994Z,92.8
2022-12-03T01:49:30.662Z,93.1
2022-12-03T02:04:05.805Z,92
2022-12-03T02:18:30.348Z,92.6
2022-12-03T02:47:38.562Z,91.8
2022-12-03T03:02:25.851Z,90.6
2022-12-03T03:31:35.879Z,91.8
2022-12-03T03:46:16.653Z,91
2022-12-03T04:00:53.802Z,94.8
2022-12-03T04:15:22.213Z,94.3
2022-12-03T04:30:03.332Z,94.3
2022-12-03T04:59:04.949Z,92
2022-12-03T05:13:37.192Z,93.7
2022-12-03T05:28:07.615Z,92.5
2022-12-03T05:42:37.227Z,92.8
2022-12-03T05:57:13.617Z,92.6
2022-12-03T06:11:47.031Z,90
2022-12-03T06:26:16.858Z,91.3
2022-12-03T06:40:57.981Z,91.5
2022-12-03T06:55:26.217Z,89.3
2022-12-03T07:10:01.596Z,92.7
2022-12-03T07:39:03.470Z,91.3
2022-12-03T07:53:35.196Z,91.2
2022-12-03T08:08:07.006Z,90.2
2022-12-03T08:22:39.621Z,90.1
2022-12-03T08:37:10.521Z,90.3
2022-12-03T08:51:43.608Z,90.1
2022-12-03T09:06:21.112Z,88.8
2022-12-03T09:20:53.823Z,89.1
2022-12-03T09:35:26.178Z,88.3
2022-12-03T09:49:59.724Z,86.6
2022-12-03T10:04:33.432Z,88
2022-12-03T10:19:06.138Z,86.6
2022-12-03T10:33:33.713Z,86.3
2022-12-03T10:48:03.670Z,85.1
2022-12-03T11:02:34.177Z,85.9
2022-12-03T11:17:00.830Z,87.1
2022-12-03T11:31:33.941Z,86.2
2022-12-03T11:46:05.462Z,85.8
2022-12-03T12:00:36.523Z,85
2022-12-03T12:15:07.830Z,85.7
2022-12-03T12:29:40.344Z,86
2022-12-03T12:44:16.663Z,86.5
2022-12-03T12:58:49.379Z,85.7
2022-12-03T13:13:13.612Z,85.6
2022-12-03T13:27:44.756Z,87.1
2022-12-03T13:42:15.421Z,85.8
2022-12-03T13:56:46.102Z,86.3
2022-12-03T14:11:19.489Z,86.5
2022-12-03T14:25:51.328Z,86.6
2022-12-03T14:40:22.685Z,86.3
2022-12-03T14:54:53.031Z,88.1
2022-12-03T15:09:22.837Z,87
2022-12-03T15:23:53.490Z,88.5
2022-12-03T15:38:25.166Z,88.1
2022-12-03T15:52:56.533Z,88.1
2022-12-03T16:07:28.106Z,88
2022-12-03T16:22:00.072Z,88.5
2022-12-03T16:36:36.534Z,88.2
2022-12-03T16:51:07.278Z,88.4
2022-12-03T17:05:39.726Z,88.1
2022-12-03T17:20:09.854Z,87.8
2022-12-03T17:34:41.833Z,88.4
2022-12-03T17:49:11.291Z,89.3
2022-12-03T18:03:45.915Z,88.3
2022-12-03T18:18:28.545Z,89.4
2022-12-03T18:32:58.850Z,88.2
2022-12-03T18:47:25.860Z,87.5
2022-12-03T19:01:57.473Z,89.6
2022-12-03T19:16:28.130Z,90.1
2022-12-03T19:30:59.475Z,91.3
2022-12-03T19:45:31.175Z,91.7
2022-12-03T20:00:01.923Z,89.7
2022-12-03T20:14:31.768Z,88.7
2022-12-03T20:29:03.067Z,89.9
2022-12-03T20:43:33.440Z,89.9
2022-12-03T20:58:04.843Z,89.5
2022-12-03T21:12:37.783Z,89.9
2022-12-03T21:27:09.647Z,90.1
2022-12-03T21:42:35.236Z,91
2022-12-03T21:56:46.280Z,90.6
2022-12-03T22:11:16.982Z,90.6
2022-12-03T22:25:48.132Z,90.3
2022-12-03T22:40:20.131Z,89.8
2022-12-03T22:54:50.953Z,90.1
2022-12-03T23:09:25.293Z,89
2022-12-03T23:23:55.214Z,89.6
2022-12-03T23:38:28.867Z,90.1
2022-12-03T23:52:57.987Z,89
